sensor_id;sensor_type;location;lat;lon;timestamp;P1;durP1;ratioP1;P2;durP2;ratioP2
32108;SDS011;18624;50.042;8.436;2022-09-24T00:01:22;5.18;;;4.43;;
32108;SDS011;18624;50.042;8.436;2022-09-24T00:03:52;5.15;;;4.30;;
32108;SDS011;18624;50.042;8.436;2022-09-24T00:06:21;5.65;;;3.83;;
32108;SDS011;18624;50.042;8.436;2022-09-24T00:08:49;6.53;;;5.47;;
32108;SDS011;18624;50.042;8.436;2022-09-24T00:11:19;4.63;;;4.22;;
32108;SDS011;18624;50.042;8.436;2022-09-24T00:13:47;4.97;;;4.50;;
32108;SDS011;18624;50.042;8.436;2022-09-24T00:16:15;4.72;;;4.32;;
32108;SDS011;18624;50.042;8.436;2022-09-24T00:18:43;4.35;;;3.95;;
32108;SDS011;18624;50.042;8.436;2022-09-24T00:21:11;4.63;;;4.18;;
32108;SDS011;18624;50.042;8.436;2022-09-24T00:23:48;6.07;;;4.38;;
32108;SDS011;18624;50.042;8.436;2022-09-24T00:26:16;6.25;;;5.65;;
32108;SDS011;18624;50.042;8.436;2022-09-24T00:29:02;7.72;;;6.15;;
32108;SDS011;18624;50.042;8.436;2022-09-24T00:31:30;8.73;;;6.32;;
32108;SDS011;18624;50.042;8.436;2022-09-24T00:33:57;6.50;;;5.70;;
32108;SDS011;18624;50.042;8.436;2022-09-24T00:36:24;4.60;;;4.20;;
32108;SDS011;18624;50.042;8.436;2022-09-24T00:38:51;5.07;;;4.63;;
32108;SDS011;18624;50.042;8.436;2022-09-24T00:41:19;6.82;;;5.25;;
32108;SDS011;18624;50.042;8.436;2022-09-24T00:43:48;5.22;;;4.82;;
32108;SDS011;18624;50.042;8.436;2022-09-24T00:48:42;4.57;;;3.85;;
32108;SDS011;18624;50.042;8.436;2022-09-24T00:51:10;5.85;;;4.22;;
32108;SDS011;18624;50.042;8.436;2022-09-24T00:53:39;6.07;;;4.55;;
32108;SDS011;18624;50.042;8.436;2022-09-24T00:56:07;5.43;;;4.93;;
32108;SDS011;18624;50.042;8.436;2022-09-24T00:58:36;5.25;;;4.72;;
32108;SDS011;18624;50.042;8.436;2022-09-24T01:01:04;7.05;;;4.97;;
32108;SDS011;18624;50.042;8.436;2022-09-24T01:03:33;4.30;;;4.00;;
32108;SDS011;18624;50.042;8.436;2022-09-24T01:06:07;5.65;;;4.38;;
32108;SDS011;18624;50.042;8.436;2022-09-24T01:08:34;6.05;;;5.03;;
32108;SDS011;18624;50.042;8.436;2022-09-24T01:16:43;5.65;;;5.05;;
32108;SDS011;18624;50.042;8.436;2022-09-24T01:19:40;5.13;;;4.63;;
32108;SDS011;18624;50.042;8.436;2022-09-24T01:25:38;6.18;;;4.93;;
32108;SDS011;18624;50.042;8.436;2022-09-24T01:28:32;5.30;;;4.80;;
32108;SDS011;18624;50.042;8.436;2022-09-24T01:31:25;6.03;;;4.90;;
32108;SDS011;18624;50.042;8.436;2022-09-24T01:33:58;5.47;;;4.95;;
32108;SDS011;18624;50.042;8.436;2022-09-24T01:36:31;5.00;;;4.60;;
32108;SDS011;18624;50.042;8.436;2022-09-24T01:39:00;5.32;;;4.68;;
32108;SDS011;18624;50.042;8.436;2022-09-24T01:41:28;6.57;;;5.30;;
32108;SDS011;18624;50.042;8.436;2022-09-24T01:43:54;6.18;;;5.00;;
32108;SDS011;18624;50.042;8.436;2022-09-24T01:46:23;5.53;;;5.07;;
32108;SDS011;18624;50.042;8.436;2022-09-24T01:48:50;5.05;;;4.55;;
32108;SDS011;18624;50.042;8.436;2022-09-24T01:54:33;4.43;;;3.95;;
32108;SDS011;18624;50.042;8.436;2022-09-24T01:57:18;5.38;;;4.88;;
32108;SDS011;18624;50.042;8.436;2022-09-24T01:59:51;5.35;;;4.85;;
32108;SDS011;18624;50.042;8.436;2022-09-24T02:02:22;6.00;;;4.93;;
32108;SDS011;18624;50.042;8.436;2022-09-24T02:05:04;5.93;;;4.78;;
32108;SDS011;18624;50.042;8.436;2022-09-24T02:07:39;4.70;;;4.30;;
32108;SDS011;18624;50.042;8.436;2022-09-24T02:10:28;6.00;;;5.50;;
32108;SDS011;18624;50.042;8.436;2022-09-24T02:13:01;4.68;;;4.28;;
32108;SDS011;18624;50.042;8.436;2022-09-24T02:15:31;4.65;;;3.22;;
32108;SDS011;18624;50.042;8.436;2022-09-24T02:18:03;5.90;;;5.40;;
32108;SDS011;18624;50.042;8.436;2022-09-24T02:20:34;4.65;;;4.25;;
32108;SDS011;18624;50.042;8.436;2022-09-24T02:23:01;5.65;;;5.00;;
32108;SDS011;18624;50.042;8.436;2022-09-24T02:25:36;9.80;;;5.68;;
32108;SDS011;18624;50.042;8.436;2022-09-24T02:28:09;5.93;;;5.32;;
32108;SDS011;18624;50.042;8.436;2022-09-24T02:30:38;4.72;;;4.32;;
32108;SDS011;18624;50.042;8.436;2022-09-24T02:33:09;5.45;;;4.95;;
32108;SDS011;18624;50.042;8.436;2022-09-24T02:35:58;6.75;;;5.05;;
32108;SDS011;18624;50.042;8.436;2022-09-24T02:38:24;5.20;;;4.70;;
32108;SDS011;18624;50.042;8.436;2022-09-24T02:40:51;5.15;;;4.43;;
32108;SDS011;18624;50.042;8.436;2022-09-24T02:43:19;5.95;;;4.75;;
32108;SDS011;18624;50.042;8.436;2022-09-24T02:45:46;5.60;;;4.93;;
32108;SDS011;18624;50.042;8.436;2022-09-24T02:48:12;5.45;;;5.03;;
32108;SDS011;18624;50.042;8.436;2022-09-24T02:50:39;5.53;;;5.00;;
32108;SDS011;18624;50.042;8.436;2022-09-24T02:53:05;6.07;;;5.25;;
32108;SDS011;18624;50.042;8.436;2022-09-24T02:55:31;4.88;;;4.47;;
32108;SDS011;18624;50.042;8.436;2022-09-24T02:57:58;4.95;;;4.55;;
32108;SDS011;18624;50.042;8.436;2022-09-24T03:00:25;7.15;;;5.47;;
32108;SDS011;18624;50.042;8.436;2022-09-24T03:02:51;5.82;;;5.32;;
32108;SDS011;18624;50.042;8.436;2022-09-24T03:05:18;5.55;;;5.05;;
32108;SDS011;18624;50.042;8.436;2022-09-24T03:07:45;5.18;;;4.68;;
32108;SDS011;18624;50.042;8.436;2022-09-24T03:10:11;5.57;;;5.07;;
32108;SDS011;18624;50.042;8.436;2022-09-24T03:12:38;5.53;;;5.03;;
32108;SDS011;18624;50.042;8.436;2022-09-24T03:15:05;6.20;;;5.38;;
32108;SDS011;18624;50.042;8.436;2022-09-24T03:17:32;5.10;;;4.70;;
32108;SDS011;18624;50.042;8.436;2022-09-24T03:19:59;5.30;;;4.80;;
32108;SDS011;18624;50.042;8.436;2022-09-24T03:22:25;5.80;;;5.07;;
32108;SDS011;18624;50.042;8.436;2022-09-24T03:24:52;5.22;;;4.72;;
32108;SDS011;18624;50.042;8.436;2022-09-24T03:27:19;5.68;;;5.18;;
32108;SDS011;18624;50.042;8.436;2022-09-24T03:29:46;5.85;;;5.28;;
32108;SDS011;18624;50.042;8.436;2022-09-24T03:32:31;6.53;;;5.78;;
32108;SDS011;18624;50.042;8.436;2022-09-24T03:34:58;5.57;;;4.65;;
32108;SDS011;18624;50.042;8.436;2022-09-24T03:37:26;5.88;;;5.38;;
32108;SDS011;18624;50.042;8.436;2022-09-24T03:39:52;5.10;;;4.70;;
32108;SDS011;18624;50.042;8.436;2022-09-24T03:42:19;7.68;;;5.57;;
32108;SDS011;18624;50.042;8.436;2022-09-24T03:44:45;6.15;;;5.55;;
32108;SDS011;18624;50.042;8.436;2022-09-24T03:47:12;6.90;;;5.93;;
32108;SDS011;18624;50.042;8.436;2022-09-24T03:49:38;5.75;;;5.22;;
32108;SDS011;18624;50.042;8.436;2022-09-24T03:52:05;6.93;;;5.80;;
32108;SDS011;18624;50.042;8.436;2022-09-24T03:54:31;7.65;;;5.97;;
32108;SDS011;18624;50.042;8.436;2022-09-24T03:56:58;5.40;;;4.90;;
32108;SDS011;18624;50.042;8.436;2022-09-24T03:59:24;5.32;;;4.82;;
32108;SDS011;18624;50.042;8.436;2022-09-24T04:01:50;6.30;;;5.45;;
32108;SDS011;18624;50.042;8.436;2022-09-24T04:04:17;5.50;;;5.00;;
32108;SDS011;18624;50.042;8.436;2022-09-24T04:06:43;5.43;;;4.93;;
32108;SDS011;18624;50.042;8.436;2022-09-24T04:09:10;6.03;;;5.43;;
32108;SDS011;18624;50.042;8.436;2022-09-24T04:11:36;6.07;;;5.45;;
32108;SDS011;18624;50.042;8.436;2022-09-24T04:14:03;5.80;;;5.20;;
32108;SDS011;18624;50.042;8.436;2022-09-24T04:16:29;5.25;;;4.82;;
32108;SDS011;18624;50.042;8.436;2022-09-24T04:18:56;5.65;;;5.15;;
32108;SDS011;18624;50.042;8.436;2022-09-24T04:21:23;5.90;;;5.38;;
32108;SDS011;18624;50.042;8.436;2022-09-24T04:23:49;4.78;;;4.35;;
32108;SDS011;18624;50.042;8.436;2022-09-24T04:26:16;5.43;;;4.93;;
32108;SDS011;18624;50.042;8.436;2022-09-24T04:28:42;6.07;;;5.47;;
32108;SDS011;18624;50.042;8.436;2022-09-24T04:31:08;5.57;;;5.07;;
32108;SDS011;18624;50.042;8.436;2022-09-24T04:33:35;7.22;;;5.43;;
32108;SDS011;18624;50.042;8.436;2022-09-24T04:36:01;5.45;;;4.78;;
32108;SDS011;18624;50.042;8.436;2022-09-24T04:38:28;5.53;;;5.13;;
32108;SDS011;18624;50.042;8.436;2022-09-24T04:41:02;5.78;;;5.30;;
32108;SDS011;18624;50.042;8.436;2022-09-24T04:43:30;5.30;;;4.80;;
32108;SDS011;18624;50.042;8.436;2022-09-24T04:45:57;5.82;;;4.95;;
32108;SDS011;18624;50.042;8.436;2022-09-24T04:48:24;5.75;;;5.22;;
32108;SDS011;18624;50.042;8.436;2022-09-24T04:50:51;6.80;;;5.03;;
32108;SDS011;18624;50.042;8.436;2022-09-24T04:53:17;5.60;;;5.10;;
32108;SDS011;18624;50.042;8.436;2022-09-24T04:55:44;5.38;;;4.57;;
32108;SDS011;18624;50.042;8.436;2022-09-24T04:58:10;6.38;;;4.80;;
32108;SDS011;18624;50.042;8.436;2022-09-24T05:00:37;6.10;;;5.63;;
32108;SDS011;18624;50.042;8.436;2022-09-24T05:03:04;5.55;;;5.05;;
32108;SDS011;18624;50.042;8.436;2022-09-24T05:05:31;6.30;;;5.70;;
32108;SDS011;18624;50.042;8.436;2022-09-24T05:07:58;6.25;;;5.45;;
32108;SDS011;18624;50.042;8.436;2022-09-24T05:10:26;4.80;;;4.40;;
32108;SDS011;18624;50.042;8.436;2022-09-24T05:12:54;6.00;;;5.50;;
32108;SDS011;18624;50.042;8.436;2022-09-24T05:15:20;9.35;;;6.60;;
32108;SDS011;18624;50.042;8.436;2022-09-24T05:17:47;6.10;;;5.50;;
32108;SDS011;18624;50.042;8.436;2022-09-24T05:20:13;6.38;;;5.50;;
32108;SDS011;18624;50.042;8.436;2022-09-24T05:22:42;10.70;;;5.75;;
32108;SDS011;18624;50.042;8.436;2022-09-24T05:25:10;7.65;;;6.90;;
32108;SDS011;18624;50.042;8.436;2022-09-24T05:27:48;6.40;;;5.80;;
32108;SDS011;18624;50.042;8.436;2022-09-24T05:30:16;7.03;;;6.05;;
32108;SDS011;18624;50.042;8.436;2022-09-24T05:32:43;6.03;;;5.45;;
32108;SDS011;18624;50.042;8.436;2022-09-24T05:35:10;6.95;;;5.95;;
32108;SDS011;18624;50.042;8.436;2022-09-24T05:37:37;8.00;;;5.75;;
32108;SDS011;18624;50.042;8.436;2022-09-24T05:40:04;6.43;;;5.82;;
32108;SDS011;18624;50.042;8.436;2022-09-24T05:42:50;7.72;;;6.53;;
32108;SDS011;18624;50.042;8.436;2022-09-24T05:45:17;6.28;;;5.68;;
32108;SDS011;18624;50.042;8.436;2022-09-24T05:47:44;6.60;;;6.00;;
32108;SDS011;18624;50.042;8.436;2022-09-24T05:50:13;6.53;;;5.93;;
32108;SDS011;18624;50.042;8.436;2022-09-24T05:52:40;6.85;;;6.05;;
32108;SDS011;18624;50.042;8.436;2022-09-24T05:55:07;7.05;;;6.35;;
32108;SDS011;18624;50.042;8.436;2022-09-24T05:57:35;8.52;;;7.72;;
32108;SDS011;18624;50.042;8.436;2022-09-24T06:00:02;8.57;;;7.75;;
32108;SDS011;18624;50.042;8.436;2022-09-24T06:02:37;7.38;;;6.78;;
32108;SDS011;18624;50.042;8.436;2022-09-24T06:05:04;7.05;;;6.00;;
32108;SDS011;18624;50.042;8.436;2022-09-24T06:07:30;7.85;;;7.15;;
32108;SDS011;18624;50.042;8.436;2022-09-24T06:09:59;6.75;;;6.15;;
32108;SDS011;18624;50.042;8.436;2022-09-24T06:12:43;7.82;;;6.88;;
32108;SDS011;18624;50.042;8.436;2022-09-24T06:15:10;7.22;;;6.63;;
32108;SDS011;18624;50.042;8.436;2022-09-24T06:17:39;7.13;;;6.53;;
32108;SDS011;18624;50.042;8.436;2022-09-24T06:20:05;8.23;;;7.45;;
32108;SDS011;18624;50.042;8.436;2022-09-24T06:22:31;7.65;;;6.95;;
32108;SDS011;18624;50.042;8.436;2022-09-24T06:24:58;7.55;;;6.72;;
32108;SDS011;18624;50.042;8.436;2022-09-24T06:27:24;7.00;;;6.40;;
32108;SDS011;18624;50.042;8.436;2022-09-24T06:29:51;6.88;;;6.28;;
32108;SDS011;18624;50.042;8.436;2022-09-24T06:32:17;7.70;;;6.93;;
32108;SDS011;18624;50.042;8.436;2022-09-24T06:34:44;7.03;;;6.30;;
32108;SDS011;18624;50.042;8.436;2022-09-24T06:37:11;6.75;;;6.05;;
32108;SDS011;18624;50.042;8.436;2022-09-24T06:39:37;8.15;;;7.40;;
32108;SDS011;18624;50.042;8.436;2022-09-24T06:42:04;8.27;;;7.47;;
32108;SDS011;18624;50.042;8.436;2022-09-24T06:44:32;8.82;;;8.02;;
32108;SDS011;18624;50.042;8.436;2022-09-24T06:47:00;8.85;;;8.05;;
32108;SDS011;18624;50.042;8.436;2022-09-24T06:49:26;7.72;;;7.07;;
32108;SDS011;18624;50.042;8.436;2022-09-24T06:51:59;9.38;;;8.25;;
32108;SDS011;18624;50.042;8.436;2022-09-24T06:54:26;8.75;;;7.88;;
32108;SDS011;18624;50.042;8.436;2022-09-24T06:56:52;9.75;;;8.85;;
32108;SDS011;18624;50.042;8.436;2022-09-24T06:59:19;10.63;;;9.40;;
32108;SDS011;18624;50.042;8.436;2022-09-24T07:01:45;10.25;;;9.20;;
32108;SDS011;18624;50.042;8.436;2022-09-24T07:04:12;9.88;;;8.88;;
32108;SDS011;18624;50.042;8.436;2022-09-24T07:06:38;10.52;;;9.52;;
32108;SDS011;18624;50.042;8.436;2022-09-24T07:09:23;10.52;;;9.55;;
32108;SDS011;18624;50.042;8.436;2022-09-24T07:11:50;13.45;;;10.52;;
32108;SDS011;18624;50.042;8.436;2022-09-24T07:14:17;10.93;;;9.82;;
32108;SDS011;18624;50.042;8.436;2022-09-24T07:16:45;9.35;;;8.55;;
32108;SDS011;18624;50.042;8.436;2022-09-24T07:19:12;10.57;;;9.48;;
32108;SDS011;18624;50.042;8.436;2022-09-24T07:21:45;10.70;;;9.60;;
32108;SDS011;18624;50.042;8.436;2022-09-24T07:24:12;10.10;;;9.10;;
32108;SDS011;18624;50.042;8.436;2022-09-24T07:26:38;10.32;;;9.32;;
32108;SDS011;18624;50.042;8.436;2022-09-24T07:29:04;9.30;;;8.45;;
32108;SDS011;18624;50.042;8.436;2022-09-24T07:31:34;10.38;;;9.35;;
32108;SDS011;18624;50.042;8.436;2022-09-24T07:34:22;11.60;;;10.23;;
32108;SDS011;18624;50.042;8.436;2022-09-24T07:36:49;13.60;;;11.05;;
32108;SDS011;18624;50.042;8.436;2022-09-24T07:39:15;10.98;;;9.70;;
32108;SDS011;18624;50.042;8.436;2022-09-24T07:41:42;17.38;;;11.15;;
32108;SDS011;18624;50.042;8.436;2022-09-24T07:44:08;11.60;;;9.82;;
32108;SDS011;18624;50.042;8.436;2022-09-24T07:46:35;11.32;;;9.23;;
32108;SDS011;18624;50.042;8.436;2022-09-24T07:49:01;9.93;;;8.95;;
32108;SDS011;18624;50.042;8.436;2022-09-24T07:51:28;11.38;;;10.35;;
32108;SDS011;18624;50.042;8.436;2022-09-24T07:53:56;10.85;;;9.88;;
32108;SDS011;18624;50.042;8.436;2022-09-24T07:56:23;11.90;;;10.75;;
32108;SDS011;18624;50.042;8.436;2022-09-24T07:58:50;12.07;;;10.88;;
32108;SDS011;18624;50.042;8.436;2022-09-24T08:01:18;11.75;;;10.65;;
32108;SDS011;18624;50.042;8.436;2022-09-24T08:03:45;11.55;;;10.38;;
32108;SDS011;18624;50.042;8.436;2022-09-24T08:06:12;12.88;;;11.57;;
32108;SDS011;18624;50.042;8.436;2022-09-24T08:08:38;11.48;;;10.43;;
32108;SDS011;18624;50.042;8.436;2022-09-24T08:11:06;11.10;;;9.95;;
32108;SDS011;18624;50.042;8.436;2022-09-24T08:13:33;12.75;;;11.40;;
32108;SDS011;18624;50.042;8.436;2022-09-24T08:16:00;18.08;;;13.00;;
32108;SDS011;18624;50.042;8.436;2022-09-24T08:18:28;14.40;;;13.10;;
32108;SDS011;18624;50.042;8.436;2022-09-24T08:20:57;14.82;;;12.88;;
32108;SDS011;18624;50.042;8.436;2022-09-24T08:23:27;15.80;;;13.88;;
32108;SDS011;18624;50.042;8.436;2022-09-24T08:25:54;14.85;;;13.55;;
32108;SDS011;18624;50.042;8.436;2022-09-24T08:28:21;13.20;;;11.77;;
32108;SDS011;18624;50.042;8.436;2022-09-24T08:30:47;13.95;;;12.65;;
32108;SDS011;18624;50.042;8.436;2022-09-24T08:33:14;14.27;;;12.85;;
32108;SDS011;18624;50.042;8.436;2022-09-24T08:35:41;13.65;;;12.25;;
32108;SDS011;18624;50.042;8.436;2022-09-24T08:38:07;13.30;;;12.02;;
32108;SDS011;18624;50.042;8.436;2022-09-24T08:40:45;14.50;;;13.07;;
32108;SDS011;18624;50.042;8.436;2022-09-24T08:43:41;12.05;;;10.90;;
32108;SDS011;18624;50.042;8.436;2022-09-24T08:46:20;15.13;;;13.63;;
32108;SDS011;18624;50.042;8.436;2022-09-24T08:49:15;15.77;;;14.27;;
32108;SDS011;18624;50.042;8.436;2022-09-24T08:51:55;15.60;;;14.02;;
32108;SDS011;18624;50.042;8.436;2022-09-24T08:54:22;17.13;;;15.02;;
32108;SDS011;18624;50.042;8.436;2022-09-24T08:56:51;15.82;;;14.05;;
32108;SDS011;18624;50.042;8.436;2022-09-24T08:59:33;17.25;;;15.48;;
32108;SDS011;18624;50.042;8.436;2022-09-24T09:02:10;17.73;;;15.93;;
32108;SDS011;18624;50.042;8.436;2022-09-24T09:07:24;18.75;;;16.23;;
32108;SDS011;18624;50.042;8.436;2022-09-24T09:10:15;16.73;;;15.00;;
32108;SDS011;18624;50.042;8.436;2022-09-24T09:12:53;19.45;;;15.60;;
32108;SDS011;18624;50.042;8.436;2022-09-24T09:15:26;15.27;;;13.57;;
32108;SDS011;18624;50.042;8.436;2022-09-24T09:18:03;17.40;;;15.68;;
32108;SDS011;18624;50.042;8.436;2022-09-24T09:20:48;17.58;;;14.80;;
32108;SDS011;18624;50.042;8.436;2022-09-24T09:23:19;14.77;;;13.35;;
32108;SDS011;18624;50.042;8.436;2022-09-24T09:25:57;15.13;;;13.55;;
32108;SDS011;18624;50.042;8.436;2022-09-24T09:28:25;17.65;;;14.80;;
32108;SDS011;18624;50.042;8.436;2022-09-24T09:30:55;13.68;;;12.30;;
32108;SDS011;18624;50.042;8.436;2022-09-24T09:33:43;16.63;;;14.93;;
32108;SDS011;18624;50.042;8.436;2022-09-24T09:41:40;14.18;;;12.80;;
32108;SDS011;18624;50.042;8.436;2022-09-24T09:44:21;19.98;;;17.00;;
32108;SDS011;18624;50.042;8.436;2022-09-24T09:49:38;17.75;;;15.95;;
32108;SDS011;18624;50.042;8.436;2022-09-24T09:52:10;17.35;;;15.55;;
32108;SDS011;18624;50.042;8.436;2022-09-24T09:54:40;17.05;;;15.38;;
32108;SDS011;18624;50.042;8.436;2022-09-24T09:57:18;18.63;;;15.48;;
32108;SDS011;18624;50.042;8.436;2022-09-24T09:59:51;16.92;;;15.23;;
32108;SDS011;18624;50.042;8.436;2022-09-24T10:02:32;16.45;;;14.80;;
32108;SDS011;18624;50.042;8.436;2022-09-24T10:05:01;19.45;;;15.90;;
32108;SDS011;18624;50.042;8.436;2022-09-24T10:07:28;17.67;;;15.80;;
32108;SDS011;18624;50.042;8.436;2022-09-24T10:10:00;17.63;;;15.82;;
32108;SDS011;18624;50.042;8.436;2022-09-24T10:12:38;17.23;;;15.50;;
32108;SDS011;18624;50.042;8.436;2022-09-24T10:15:26;20.45;;;16.73;;
32108;SDS011;18624;50.042;8.436;2022-09-24T10:17:52;17.10;;;15.50;;
32108;SDS011;18624;50.042;8.436;2022-09-24T10:20:24;19.30;;;15.85;;
32108;SDS011;18624;50.042;8.436;2022-09-24T10:22:55;16.10;;;14.70;;
32108;SDS011;18624;50.042;8.436;2022-09-24T10:25:25;15.50;;;14.10;;
32108;SDS011;18624;50.042;8.436;2022-09-24T10:27:54;15.23;;;13.85;;
32108;SDS011;18624;50.042;8.436;2022-09-24T10:30:48;14.73;;;13.25;;
32108;SDS011;18624;50.042;8.436;2022-09-24T10:33:18;15.65;;;14.05;;
32108;SDS011;18624;50.042;8.436;2022-09-24T10:35:45;16.05;;;13.88;;
32108;SDS011;18624;50.042;8.436;2022-09-24T10:38:15;14.57;;;13.07;;
32108;SDS011;18624;50.042;8.436;2022-09-24T10:40:47;16.77;;;14.40;;
32108;SDS011;18624;50.042;8.436;2022-09-24T10:43:17;12.50;;;11.38;;
32108;SDS011;18624;50.042;8.436;2022-09-24T10:48:29;16.63;;;15.02;;
32108;SDS011;18624;50.042;8.436;2022-09-24T10:51:12;15.98;;;14.32;;
32108;SDS011;18624;50.042;8.436;2022-09-24T10:56:40;11.38;;;10.27;;
32108;SDS011;18624;50.042;8.436;2022-09-24T10:59:18;13.73;;;12.20;;
32108;SDS011;18624;50.042;8.436;2022-09-24T11:01:59;15.35;;;13.85;;
32108;SDS011;18624;50.042;8.436;2022-09-24T11:10:32;18.15;;;13.82;;
32108;SDS011;18624;50.042;8.436;2022-09-24T11:13:17;16.58;;;13.70;;
32108;SDS011;18624;50.042;8.436;2022-09-24T11:19:16;12.23;;;11.13;;
32108;SDS011;18624;50.042;8.436;2022-09-24T11:22:15;11.35;;;10.02;;
32108;SDS011;18624;50.042;8.436;2022-09-24T11:28:02;13.85;;;12.65;;
32108;SDS011;18624;50.042;8.436;2022-09-24T11:36:34;11.25;;;10.07;;
32108;SDS011;18624;50.042;8.436;2022-09-24T11:39:09;14.20;;;12.05;;
32108;SDS011;18624;50.042;8.436;2022-09-24T11:52:28;13.23;;;11.32;;
32108;SDS011;18624;50.042;8.436;2022-09-24T11:55:24;10.25;;;9.23;;
32108;SDS011;18624;50.042;8.436;2022-09-24T12:00:41;11.93;;;10.40;;
32108;SDS011;18624;50.042;8.436;2022-09-24T12:08:52;8.55;;;6.95;;
32108;SDS011;18624;50.042;8.436;2022-09-24T12:11:24;8.88;;;7.03;;
32108;SDS011;18624;50.042;8.436;2022-09-24T12:14:00;8.98;;;6.60;;
32108;SDS011;18624;50.042;8.436;2022-09-24T12:21:35;10.25;;;7.47;;
32108;SDS011;18624;50.042;8.436;2022-09-24T12:24:10;9.63;;;7.38;;
32108;SDS011;18624;50.042;8.436;2022-09-24T12:26:38;7.00;;;6.35;;
32108;SDS011;18624;50.042;8.436;2022-09-24T12:32:28;7.80;;;6.45;;
32108;SDS011;18624;50.042;8.436;2022-09-24T12:37:47;7.88;;;6.30;;
32108;SDS011;18624;50.042;8.436;2022-09-24T12:43:04;6.93;;;6.22;;
32108;SDS011;18624;50.042;8.436;2022-09-24T12:45:42;4.50;;;3.72;;
32108;SDS011;18624;50.042;8.436;2022-09-24T12:48:10;7.78;;;5.20;;
32108;SDS011;18624;50.042;8.436;2022-09-24T12:50:41;5.82;;;4.82;;
32108;SDS011;18624;50.042;8.436;2022-09-24T12:53:18;4.50;;;4.03;;
32108;SDS011;18624;50.042;8.436;2022-09-24T12:55:49;5.13;;;4.63;;
32108;SDS011;18624;50.042;8.436;2022-09-24T12:58:37;3.92;;;3.63;;
32108;SDS011;18624;50.042;8.436;2022-09-24T13:06:40;5.35;;;4.20;;
32108;SDS011;18624;50.042;8.436;2022-09-24T13:14:40;5.93;;;4.57;;
32108;SDS011;18624;50.042;8.436;2022-09-24T13:17:12;8.57;;;5.30;;
32108;SDS011;18624;50.042;8.436;2022-09-24T13:19:41;6.80;;;4.63;;
32108;SDS011;18624;50.042;8.436;2022-09-24T13:22:25;4.80;;;4.25;;
32108;SDS011;18624;50.042;8.436;2022-09-24T13:24:52;4.90;;;4.15;;
32108;SDS011;18624;50.042;8.436;2022-09-24T13:28:00;4.50;;;3.72;;
32108;SDS011;18624;50.042;8.436;2022-09-24T13:32:56;4.15;;;3.85;;
32108;SDS011;18624;50.042;8.436;2022-09-24T13:35:29;7.75;;;4.07;;
32108;SDS011;18624;50.042;8.436;2022-09-24T13:38:11;6.60;;;4.25;;
32108;SDS011;18624;50.042;8.436;2022-09-24T13:40:51;5.00;;;3.72;;
32108;SDS011;18624;50.042;8.436;2022-09-24T13:43:29;7.13;;;4.03;;
32108;SDS011;18624;50.042;8.436;2022-09-24T13:46:06;6.45;;;4.00;;
32108;SDS011;18624;50.042;8.436;2022-09-24T13:48:40;5.72;;;4.00;;
32108;SDS011;18624;50.042;8.436;2022-09-24T13:51:16;4.65;;;4.13;;
32108;SDS011;18624;50.042;8.436;2022-09-24T13:53:48;4.65;;;4.15;;
32108;SDS011;18624;50.042;8.436;2022-09-24T13:56:21;4.40;;;3.97;;
32108;SDS011;18624;50.042;8.436;2022-09-24T13:58:48;4.70;;;4.30;;
32108;SDS011;18624;50.042;8.436;2022-09-24T14:01:17;4.07;;;3.67;;
32108;SDS011;18624;50.042;8.436;2022-09-24T14:03:55;5.68;;;4.72;;
32108;SDS011;18624;50.042;8.436;2022-09-24T14:06:38;5.45;;;4.53;;
32108;SDS011;18624;50.042;8.436;2022-09-24T14:09:41;5.55;;;4.53;;
32108;SDS011;18624;50.042;8.436;2022-09-24T14:12:10;5.25;;;3.72;;
32108;SDS011;18624;50.042;8.436;2022-09-24T14:14:45;6.85;;;4.05;;
32108;SDS011;18624;50.042;8.436;2022-09-24T14:17:16;5.43;;;4.57;;
32108;SDS011;18624;50.042;8.436;2022-09-24T14:19:42;7.60;;;4.32;;
32108;SDS011;18624;50.042;8.436;2022-09-24T14:22:10;5.80;;;5.25;;
32108;SDS011;18624;50.042;8.436;2022-09-24T14:27:35;6.35;;;5.85;;
32108;SDS011;18624;50.042;8.436;2022-09-24T14:30:16;7.25;;;6.57;;
32108;SDS011;18624;50.042;8.436;2022-09-24T14:32:48;7.28;;;6.10;;
32108;SDS011;18624;50.042;8.436;2022-09-24T14:35:19;8.50;;;7.63;;
32108;SDS011;18624;50.042;8.436;2022-09-24T14:38:05;7.07;;;6.38;;
32108;SDS011;18624;50.042;8.436;2022-09-24T14:44:01;6.30;;;5.07;;
32108;SDS011;18624;50.042;8.436;2022-09-24T14:46:25;7.38;;;6.70;;
32108;SDS011;18624;50.042;8.436;2022-09-24T14:49:13;8.07;;;6.25;;
32108;SDS011;18624;50.042;8.436;2022-09-24T14:51:49;6.53;;;5.88;;
32108;SDS011;18624;50.042;8.436;2022-09-24T14:54:27;8.65;;;5.82;;
32108;SDS011;18624;50.042;8.436;2022-09-24T14:59:44;5.07;;;4.68;;
32108;SDS011;18624;50.042;8.436;2022-09-24T15:02:16;9.48;;;6.65;;
32108;SDS011;18624;50.042;8.436;2022-09-24T15:04:47;8.02;;;5.72;;
32108;SDS011;18624;50.042;8.436;2022-09-24T15:07:17;7.22;;;5.32;;
32108;SDS011;18624;50.042;8.436;2022-09-24T15:09:48;6.20;;;5.55;;
32108;SDS011;18624;50.042;8.436;2022-09-24T15:12:21;9.57;;;7.07;;
32108;SDS011;18624;50.042;8.436;2022-09-24T15:14:53;8.85;;;6.22;;
32108;SDS011;18624;50.042;8.436;2022-09-24T15:17:22;7.20;;;5.50;;
32108;SDS011;18624;50.042;8.436;2022-09-24T15:19:53;5.80;;;5.20;;
32108;SDS011;18624;50.042;8.436;2022-09-24T15:22:23;7.53;;;6.10;;
32108;SDS011;18624;50.042;8.436;2022-09-24T15:24:52;8.88;;;8.02;;
32108;SDS011;18624;50.042;8.436;2022-09-24T15:27:27;8.00;;;7.20;;
32108;SDS011;18624;50.042;8.436;2022-09-24T15:29:57;8.88;;;7.97;;
32108;SDS011;18624;50.042;8.436;2022-09-24T15:32:26;10.48;;;9.20;;
32108;SDS011;18624;50.042;8.436;2022-09-24T15:34:54;9.75;;;8.95;;
32108;SDS011;18624;50.042;8.436;2022-09-24T15:37:22;7.35;;;6.75;;
32108;SDS011;18624;50.042;8.436;2022-09-24T15:39:50;9.40;;;8.00;;
32108;SDS011;18624;50.042;8.436;2022-09-24T15:42:19;8.00;;;7.25;;
32108;SDS011;18624;50.042;8.436;2022-09-24T15:44:47;9.07;;;8.10;;
32108;SDS011;18624;50.042;8.436;2022-09-24T15:47:16;8.18;;;7.22;;
32108;SDS011;18624;50.042;8.436;2022-09-24T15:49:43;7.18;;;6.20;;
32108;SDS011;18624;50.042;8.436;2022-09-24T15:52:14;7.68;;;5.75;;
32108;SDS011;18624;50.042;8.436;2022-09-24T15:54:50;8.30;;;7.03;;
32108;SDS011;18624;50.042;8.436;2022-09-24T15:57:20;7.97;;;7.20;;
32108;SDS011;18624;50.042;8.436;2022-09-24T15:59:48;7.32;;;6.55;;
32108;SDS011;18624;50.042;8.436;2022-09-24T16:02:15;7.05;;;6.35;;
32108;SDS011;18624;50.042;8.436;2022-09-24T16:04:46;7.88;;;6.38;;
32108;SDS011;18624;50.042;8.436;2022-09-24T16:07:12;7.03;;;6.30;;
32108;SDS011;18624;50.042;8.436;2022-09-24T16:09:39;7.32;;;6.63;;
32108;SDS011;18624;50.042;8.436;2022-09-24T16:12:06;7.90;;;6.25;;
32108;SDS011;18624;50.042;8.436;2022-09-24T16:14:32;6.22;;;5.63;;
32108;SDS011;18624;50.042;8.436;2022-09-24T16:16:58;7.63;;;6.00;;
32108;SDS011;18624;50.042;8.436;2022-09-24T16:19:25;6.70;;;6.10;;
32108;SDS011;18624;50.042;8.436;2022-09-24T16:21:51;5.85;;;5.30;;
32108;SDS011;18624;50.042;8.436;2022-09-24T16:24:18;7.22;;;5.70;;
32108;SDS011;18624;50.042;8.436;2022-09-24T16:26:44;5.97;;;5.35;;
32108;SDS011;18624;50.042;8.436;2022-09-24T16:29:11;6.38;;;5.82;;
32108;SDS011;18624;50.042;8.436;2022-09-24T16:31:37;6.25;;;5.53;;
32108;SDS011;18624;50.042;8.436;2022-09-24T16:34:04;5.20;;;4.63;;
32108;SDS011;18624;50.042;8.436;2022-09-24T16:36:30;6.25;;;5.65;;
32108;SDS011;18624;50.042;8.436;2022-09-24T16:38:56;6.25;;;5.63;;
32108;SDS011;18624;50.042;8.436;2022-09-24T16:41:23;6.93;;;5.55;;
32108;SDS011;18624;50.042;8.436;2022-09-24T16:43:53;6.68;;;6.07;;
32108;SDS011;18624;50.042;8.436;2022-09-24T16:46:21;6.10;;;5.50;;
32108;SDS011;18624;50.042;8.436;2022-09-24T16:48:48;6.85;;;6.22;;